Time;durP1;ratioP1;P1;durP2;ratioP2;P2;SDS_P1;SDS_P2;PMS_P1;PMS_P2;Temp;Humidity;BMP_temperature;BMP_pressure;BME280_temperature;BME280_humidity;BME280_pressure;Samples;Min_cycle;Max_cycle;Signal;HPM_P1;HPM_P2
2022/12/20 05:28:05;;;;;;;24.25;11.20;;;;;;;1.77;100.00;100568.97;5107800;28;20059;-74
2022/12/20 05:30:34;;;;;;;29.08;14.55;;;;;;;1.80;100.00;100579.22;5107342;28;20372;-75
2022/12/20 05:32:59;;;;;;;18.00;11.02;;;;;;;1.78;100.00;100580.31;5076438;22;20044;-76
2022/12/20 05:35:25;;;;;;;18.85;10.27;;;;;;;1.78;100.00;100577.69;5047210;28;20172;-76
2022/12/20 05:37:57;;;;;;;13.10;9.05;;;;;;;1.82;100.00;100569.44;5047282;28;20657;-76
2022/12/20 05:40:23;;;;;;;17.50;11.25;;;;;;;1.87;100.00;100567.34;5048224;28;20041;-76
2022/12/20 05:42:49;;;;;;;20.17;10.25;;;;;;;1.86;100.00;100581.44;5048341;28;20029;-76
2022/12/20 05:45:14;;;;;;;18.85;9.45;;;;;;;1.91;100.00;100575.84;5047018;28;20045;-77
2022/12/20 05:48:02;;;;;;;;;;;;;;;1.89;100.00;100583.84;5047398;28;20128;-76
2022/12/20 05:50:31;;;;;;;17.23;8.85;;;;;;;1.93;100.00;100586.25;5046447;28;20405;-76
2022/12/20 05:53:32;;;;;;;18.75;10.02;;;;;;;1.94;100.00;100578.25;5035399;28;20055;-77
2022/12/20 05:56:00;;;;;;;16.80;8.90;;;;;;;1.93;100.00;100575.72;5046943;28;20130;-76
2022/12/20 05:58:32;;;;;;;19.63;12.40;;;;;;;1.95;100.00;100577.28;5046957;28;20048;-76
2022/12/20 06:01:04;;;;;;;18.08;10.00;;;;;;;1.92;100.00;100577.53;5046578;28;20561;-77
2022/12/20 06:03:36;;;;;;;17.90;10.15;;;;;;;1.94;100.00;100577.41;5046766;28;20096;-76
2022/12/20 06:06:04;;;;;;;20.52;11.45;;;;;;;1.93;100.00;100581.81;5046705;28;20098;-76
2022/12/20 06:08:31;;;;;;;17.10;9.97;;;;;;;1.97;100.00;100583.28;5046625;28;20040;-76
2022/12/20 06:10:58;;;;;;;19.50;11.27;;;;;;;1.90;100.00;100566.28;5046274;28;20041;-76
2022/12/20 06:13:24;;;;;;;18.13;9.15;;;;;;;1.95;100.00;100569.41;5046401;28;20655;-76
2022/12/20 06:15:52;;;;;;;14.23;9.13;;;;;;;2.02;100.00;100569.81;5046492;28;20415;-76
2022/12/20 06:18:19;;;;;;;20.75;11.13;;;;;;;2.07;100.00;100578.19;5046599;28;20087;-76
2022/12/20 06:20:50;;;;;;;18.92;9.95;;;;;;;2.04;100.00;100571.38;5046143;28;20041;-76
2022/12/20 06:23:17;;;;;;;19.63;9.65;;;;;;;2.04;100.00;100562.66;5047591;28;20379;-76
2022/12/20 06:25:51;;;;;;;20.17;11.32;;;;;;;2.05;100.00;100556.47;5046318;28;20080;-76
2022/12/20 06:28:20;;;;;;;16.95;9.68;;;;;;;2.09;100.00;100565.81;5029722;28;20038;-76
2022/12/20 06:30:57;;;;;;;20.80;9.95;;;;;;;2.08;100.00;100553.59;5045854;28;20041;-76
2022/12/20 06:33:40;;;;;;;24.20;10.55;;;;;;;2.12;100.00;100563.78;5034291;28;20584;-76
2022/12/20 06:36:06;;;;;;;18.98;10.15;;;;;;;2.14;100.00;100556.63;5034215;28;20120;-76
2022/12/20 06:38:31;;;;;;;20.70;10.23;;;;;;;2.13;100.00;100552.31;5033031;28;20402;-76
2022/12/20 06:40:57;;;;;;;15.00;9.00;;;;;;;2.18;100.00;100554.63;5032567;28;20052;-76
2022/12/20 06:43:23;;;;;;;14.38;8.45;;;;;;;2.25;100.00;100553.22;5032706;28;20095;-76
2022/12/20 06:45:48;;;;;;;15.95;9.07;;;;;;;2.25;100.00;100547.97;5032713;28;20454;-76
2022/12/20 06:48:14;;;;;;;16.17;8.45;;;;;;;2.25;100.00;100545.34;5032683;28;20111;-76
2022/12/20 06:50:41;;;;;;;15.13;9.07;;;;;;;2.26;100.00;100540.91;5032255;28;20395;-76
2022/12/20 06:53:07;;;;;;;17.70;8.30;;;;;;;2.26;100.00;100546.16;5032582;28;20107;-76
2022/12/20 06:55:33;;;;;;;15.35;8.25;;;;;;;2.25;100.00;100540.06;5032543;28;20069;-76
2022/12/20 06:57:58;;;;;;;18.75;9.93;;;;;;;2.27;100.00;100538.16;5032692;28;20042;-76
2022/12/20 07:00:26;;;;;;;16.00;8.45;;;;;;;2.31;100.00;100544.03;5032216;28;20072;-77
2022/12/20 07:02:51;;;;;;;14.63;8.18;;;;;;;2.30;100.00;100537.94;5032221;28;20079;-76
2022/12/20 07:05:17;;;;;;;14.02;8.10;;;;;;;2.35;100.00;100535.81;5032488;28;20061;-76
2022/12/20 07:07:43;;;;;;;16.80;10.18;;;;;;;2.40;100.00;100543.34;5033582;28;20479;-75
2022/12/20 07:10:08;;;;;;;14.85;8.38;;;;;;;2.37;100.00;100528.66;5033335;28;20048;-75
2022/12/20 07:12:34;;;;;;;15.50;8.93;;;;;;;2.40;100.00;100527.56;5033308;28;20041;-75
2022/12/20 07:14:59;;;;;;;16.58;8.85;;;;;;;2.40;100.00;100523.16;5032305;28;20041;-75
2022/12/20 07:17:25;;;;;;;19.13;9.60;;;;;;;2.40;100.00;100515.25;5033564;28;20038;-76
2022/12/20 07:19:50;;;;;;;16.45;10.18;;;;;;;2.43;100.00;100520.31;5032152;28;20406;-76
2022/12/20 07:22:15;;;;;;;18.10;9.70;;;;;;;2.42;100.00;100509.91;5032956;28;20108;-76
2022/12/20 07:24:41;;;;;;;19.63;8.60;;;;;;;2.34;100.00;100507.84;5033389;28;20449;-76
2022/12/20 07:27:06;;;;;;;14.85;8.75;;;;;;;2.41;100.00;100516.09;5033252;28;20539;-76
2022/12/20 07:29:32;;;;;;;18.75;9.32;;;;;;;2.38;100.00;100522.44;5033090;28;20037;-76
2022/12/20 07:31:58;;;;;;;17.45;10.18;;;;;;;2.44;100.00;100534.28;5032637;28;20040;-76
2022/12/20 07:34:23;;;;;;;21.73;9.98;;;;;;;2.38;100.00;100517.19;5033126;28;20080;-76
2022/12/20 07:36:49;;;;;;;16.65;9.13;;;;;;;2.45;100.00;100530.72;5033037;28;20049;-76
2022/12/20 07:39:14;;;;;;;15.10;9.07;;;;;;;2.53;100.00;100552.00;5033136;28;20033;-76
2022/12/20 07:41:40;;;;;;;16.23;9.30;;;;;;;2.55;100.00;100544.03;5032677;28;20033;-76
2022/12/20 07:44:12;;;;;;;16.98;9.27;;;;;;;2.53;100.00;100540.66;5030604;28;20033;-76
2022/12/20 07:46:37;;;;;;;14.90;9.10;;;;;;;2.55;100.00;100544.03;5032745;28;20402;-76
2022/12/20 07:49:04;;;;;;;16.80;8.77;;;;;;;2.57;100.00;100539.47;5032838;28;20037;-76
2022/12/20 07:51:37;;;;;;;17.15;8.75;;;;;;;2.58;100.00;100528.00;5014912;28;20038;-75
2022/12/20 07:54:11;;;;;;;19.33;9.70;;;;;;;2.61;100.00;100520.72;5033442;28;20036;-76
2022/12/20 07:56:41;;;;;;;18.60;10.32;;;;;;;2.62;100.00;100505.78;5033520;28;20040;-76
2022/12/20 07:59:11;;;;;;;19.38;10.10;;;;;;;2.63;100.00;100504.81;5032494;28;20041;-75
2022/12/20 08:01:36;;;;;;;16.90;8.98;;;;;;;2.65;100.00;100489.75;5033244;28;20052;-75
2022/12/20 08:04:09;;;;;;;13.55;8.48;;;;;;;2.67;100.00;100498.34;5032199;28;20119;-75
2022/12/20 08:06:36;;;;;;;18.92;9.80;;;;;;;2.70;100.00;100496.34;5032245;28;20037;-68
2022/12/20 08:09:04;;;;;;;15.98;8.23;;;;;;;2.74;100.00;100494.34;5032589;28;20124;-67
2022/12/20 08:11:33;;;;;;;17.88;9.38;;;;;;;2.83;100.00;100498.03;5032037;28;20095;-65
2022/12/20 08:13:59;;;;;;;19.50;10.13;;;;;;;2.86;100.00;100498.63;5032567;28;20063;-67
2022/12/20 08:16:25;;;;;;;12.25;7.95;;;;;;;2.93;100.00;100504.25;5032400;28;20459;-66
2022/12/20 08:18:50;;;;;;;15.70;8.77;;;;;;;2.95;100.00;100507.63;5032373;28;20548;-67
2022/12/20 08:21:15;;;;;;;17.38;9.80;;;;;;;3.01;100.00;100503.69;5031995;28;20038;-70
2022/12/20 08:23:41;;;;;;;19.08;10.93;;;;;;;3.03;100.00;100488.63;5032310;28;20041;-72
2022/12/20 08:26:06;;;;;;;22.83;10.40;;;;;;;3.08;100.00;100487.31;5031009;28;20037;-70
2022/12/20 08:28:32;;;;;;;18.00;10.38;;;;;;;3.15;100.00;100480.59;5030994;28;20041;-70
2022/12/20 08:31:06;;;;;;;17.80;9.57;;;;;;;3.22;100.00;100483.59;5031750;28;20065;-71
2022/12/20 08:33:33;;;;;;;23.63;10.35;;;;;;;3.24;100.00;100481.66;5030805;28;20052;-70
2022/12/20 08:36:02;;;;;;;20.80;9.52;;;;;;;3.24;100.00;100476.41;5032102;28;20040;-71
2022/12/20 08:38:28;;;;;;;18.58;9.90;;;;;;;3.32;100.00;100483.69;5031991;28;20048;-71
2022/12/20 08:40:54;;;;;;;14.77;10.02;;;;;;;3.35;100.00;100473.78;5031573;28;20044;-71
2022/12/20 08:43:19;;;;;;;15.45;9.98;;;;;;;3.36;100.00;100464.06;5030677;28;20042;-71
2022/12/20 08:45:51;;;;;;;16.08;9.25;;;;;;;3.39;100.00;100469.94;5031878;28;20095;-71
2022/12/20 08:48:16;;;;;;;14.35;8.55;;;;;;;3.45;100.00;100472.06;5031875;28;20038;-70
2022/12/20 08:50:41;;;;;;;13.48;8.88;;;;;;;3.52;100.00;100470.66;5030082;28;20581;-71
2022/12/20 08:53:07;;;;;;;13.85;8.32;;;;;;;3.54;100.00;100471.34;5031681;28;20042;-70
2022/12/20 08:55:32;;;;;;;16.27;8.73;;;;;;;3.57;100.00;100467.63;5031501;28;20042;-70
2022/12/20 08:57:58;;;;;;;18.30;9.05;;;;;;;3.55;100.00;100461.66;5031562;28;20045;-70
2022/12/20 09:00:23;;;;;;;15.32;9.75;;;;;;;3.62;100.00;100467.25;5031358;28;20501;-72
2022/12/20 09:02:50;;;;;;;21.15;10.43;;;;;;;3.61;100.00;100457.69;5031615;28;20045;-71
2022/12/20 09:05:15;;;;;;;16.83;8.50;;;;;;;3.65;100.00;100459.09;5031996;28;20103;-71
2022/12/20 09:07:41;;;;;;;13.48;8.02;;;;;;;3.72;100.00;100455.88;5031704;28;20045;-71
2022/12/20 09:10:07;;;;;;;21.38;9.55;;;;;;;3.77;100.00;100444.94;5031419;28;20113;-71
2022/12/20 09:12:36;;;;;;;15.63;9.32;;;;;;;3.84;100.00;100464.56;5031358;28;20387;-71
2022/12/20 09:15:01;;;;;;;19.25;8.88;;;;;;;3.85;100.00;100454.84;5031613;28;20099;-71
2022/12/20 09:17:27;;;;;;;16.50;9.00;;;;;;;3.91;100.00;100463.13;5031988;28;20045;-71
2022/12/20 09:19:54;;;;;;;17.00;8.13;;;;;;;3.96;100.00;100474.09;5032603;28;20038;-71
2022/12/20 09:22:19;;;;;;;15.70;8.60;;;;;;;4.04;100.00;100479.59;5032949;28;20033;-71
2022/12/20 09:24:45;;;;;;;15.10;8.85;;;;;;;4.09;100.00;100495.84;5032544;28;20402;-71
2022/12/20 09:27:10;;;;;;;13.15;8.15;;;;;;;4.16;100.00;100493.56;5031806;28;20041;-69
2022/12/20 09:29:36;;;;;;;15.88;8.65;;;;;;;4.21;100.00;100488.75;5031463;28;20045;-71
2022/12/20 09:32:01;;;;;;;13.27;7.70;;;;;;;4.28;100.00;100481.16;5030827;28;20041;-70
2022/12/20 09:34:27;;;;;;;16.20;8.93;;;;;;;4.35;100.00;100480.53;5031553;28;20132;-71
2022/12/20 09:36:52;;;;;;;21.35;10.65;;;;;;;4.35;100.00;100474.41;5031408;28;20041;-71
2022/12/20 09:39:18;;;;;;;20.48;9.02;;;;;;;4.51;100.00;100472.19;5031380;28;20043;-70
2022/12/20 09:41:43;;;;;;;19.52;11.98;;;;;;;4.52;100.00;100481.78;5031182;28;20033;-71
2022/12/20 09:44:21;;;;;;;19.92;10.65;;;;;;;4.52;100.00;100473.84;5031769;28;20120;-71
2022/12/20 09:46:51;;;;;;;;;;;;;;;4.57;100.00;100471.69;5032005;28;20033;-71
2022/12/20 09:49:18;;;;;;;22.63;10.70;;;;;;;4.62;100.00;100487.09;5031679;28;19916;-70
2022/12/20 09:52:03;;;;;;;22.10;9.82;;;;;;;4.63;100.00;100484.34;5031140;28;20038;-69
2022/12/20 09:54:32;;;;;;;19.23;9.98;;;;;;;4.66;100.00;100483.25;5031298;28;20037;-68
2022/12/20 09:57:17;;;;;;;12.52;8.10;;;;;;;4.70;100.00;100473.28;5031364;28;20047;-69
2022/12/20 09:59:44;;;;;;;16.02;8.30;;;;;;;4.74;100.00;100479.94;5031322;28;20081;-69
2022/12/20 10:02:19;;;;;;;16.73;8.18;;;;;;;4.77;100.00;100474.44;5030798;28;20040;-68
2022/12/20 10:04:44;;;;;;;12.35;7.70;;;;;;;4.79;100.00;100477.75;5031214;28;20033;-68
2022/12/20 10:07:32;;;;;;;12.18;7.75;;;;;;;4.77;100.00;100471.78;5031724;28;20121;-69
2022/12/20 10:10:20;;;;;;;12.13;7.20;;;;;;;4.83;100.00;100464.19;5034684;28;20087;-66
2022/12/20 10:13:24;;;;;;;14.57;8.07;;;;;;;4.89;100.00;100462.81;5034667;28;20041;-69
2022/12/20 10:16:18;;;;;;;14.75;7.18;;;;;;;4.96;100.00;100453.41;5016524;28;20164;-68
2022/12/20 10:19:07;;;;;;;15.27;7.45;;;;;;;4.99;100.00;100447.84;5033295;28;20033;-69
2022/12/20 10:21:41;;;;;;;11.60;6.50;;;;;;;5.03;100.00;100438.72;5034126;28;20029;-69
2022/12/20 10:24:19;;;;;;;15.85;5.68;;;;;;;5.12;100.00;100447.63;5034388;28;20029;-68
2022/12/20 10:26:48;;;;;;;11.00;6.88;;;;;;;5.14;100.00;100449.16;5034519;28;20033;-69
2022/12/20 10:29:13;;;;;;;13.50;7.47;;;;;;;5.18;100.00;100450.56;5034314;28;20433;-69
2022/12/20 10:31:39;;;;;;;11.80;6.53;;;;;;;5.21;100.00;100438.88;5032693;28;20142;-67
2022/12/20 10:34:06;;;;;;;13.43;7.00;;;;;;;5.30;100.00;100439.91;5034267;28;20646;-68
2022/12/20 10:36:34;;;;;;;14.25;7.07;;;;;;;5.33;100.00;100437.81;5034334;28;20044;-68
2022/12/20 10:39:03;;;;;;;9.88;6.20;;;;;;;5.40;100.00;100431.03;5034234;28;20059;-68
2022/12/20 10:41:32;;;;;;;14.48;6.35;;;;;;;5.50;100.00;100425.78;5033991;28;20051;-68
2022/12/20 10:44:03;;;;;;;9.93;6.25;;;;;;;5.59;100.00;100424.94;5032975;28;20117;-68
2022/12/20 10:46:42;;;;;;;12.05;7.05;;;;;;;5.66;100.00;100415.50;5034344;28;20038;-68
2022/12/20 10:49:26;;;;;;;13.60;6.68;;;;;;;5.77;100.00;100408.41;5032970;28;20141;-68
2022/12/20 10:51:54;;;;;;;12.40;6.32;;;;;;;5.78;100.00;100397.69;5033778;28;20041;-68
2022/12/20 10:54:44;;;;;;;10.80;6.55;;;;;;;5.82;100.00;100400.91;5032770;28;20029;-69
2022/12/20 10:57:18;;;;;;;10.95;6.43;;;;;;;5.85;100.00;100398.81;5032770;28;20037;-67
2022/12/20 10:59:49;;;;;;;10.18;6.05;;;;;;;5.85;100.00;100401.47;5033991;28;20379;-69
2022/12/20 11:02:27;;;;;;;12.35;6.43;;;;;;;5.90;100.00;100407.16;5033533;28;20105;-69
2022/12/20 11:05:17;;;;;;;12.55;6.90;;;;;;;5.87;100.00;100407.47;5033789;28;20459;-68
2022/12/20 11:08:14;;;;;;;11.35;6.40;;;;;;;5.91;100.00;100400.09;5033612;28;20041;-69
2022/12/20 11:10:40;;;;;;;9.02;6.03;;;;;;;5.88;100.00;100382.69;5033426;28;20075;-69
2022/12/20 11:13:05;;;;;;;12.73;6.07;;;;;;;5.88;100.00;100371.28;5033541;28;20472;-69
2022/12/20 11:15:34;;;;;;;11.70;6.63;;;;;;;5.94;100.00;100370.75;5033615;28;20116;-68
2022/12/20 11:18:08;;;;;;;13.25;6.35;;;;;;;5.96;100.00;100358.22;5033508;28;20045;-68
2022/12/20 11:20:45;;;;;;;12.73;6.72;;;;;;;5.96;100.00;100334.41;5015502;28;20059;-69
2022/12/20 11:23:10;;;;;;;11.63;6.07;;;;;;;5.98;100.00;100335.09;5033406;28;20044;-69
2022/12/20 11:25:49;;;;;;;9.38;6.40;;;;;;;5.99;100.00;100339.41;5033483;28;20041;-69
2022/12/20 11:28:36;;;;;;;9.20;6.18;;;;;;;6.03;100.00;100343.44;5033414;28;20407;-69
2022/12/20 11:31:10;;;;;;;13.00;6.90;;;;;;;6.14;100.00;100348.59;5031784;28;20082;-68
2022/12/20 11:34:16;;;;;;;9.32;6.45;;;;;;;6.24;100.00;100356.50;5033587;28;20037;-69
2022/12/20 11:37:00;;;;;;;9.30;6.10;;;;;;;6.20;100.00;100353.31;5032100;28;20037;-69
2022/12/20 11:39:57;;;;;;;9.77;6.15;;;;;;;6.34;100.00;100356.50;5033197;28;20069;-69
2022/12/20 11:42:50;;;;;;;11.68;6.40;;;;;;;6.58;100.00;100354.16;4991751;28;20060;-69
2022/12/20 11:46:03;;;;;;;12.77;7.10;;;;;;;6.78;100.00;100355.78;5033124;28;20517;-68
2022/12/20 11:48:37;;;;;;;11.13;6.45;;;;;;;6.95;100.00;100340.06;5032190;28;20037;-69
2022/12/20 11:51:17;;;;;;;11.02;7.22;;;;;;;7.10;100.00;100330.63;5032607;28;20098;-69
2022/12/20 11:53:47;;;;;;;11.55;6.07;;;;;;;7.23;100.00;100324.97;5033161;28;20058;-69
2022/12/20 11:56:35;;;;;;;12.73;6.50;;;;;;;7.27;100.00;100335.16;5032913;28;20723;-70
2022/12/20 11:59:31;;;;;;;11.93;6.35;;;;;;;7.34;100.00;100325.59;5032857;28;20183;-69
2022/12/20 12:02:09;;;;;;;9.38;5.82;;;;;;;7.31;100.00;100317.97;5032396;28;20033;-69
2022/12/20 12:04:42;;;;;;;14.30;7.78;;;;;;;7.25;100.00;100309.78;5032801;28;20029;-69
2022/12/20 12:07:20;;;;;;;13.30;7.32;;;;;;;7.26;100.00;100316.75;5031378;28;20071;-68
2022/12/20 12:10:32;;;;;;;12.98;7.38;;;;;;;7.24;100.00;100310.78;5032681;28;20072;-68
2022/12/20 12:13:10;;;;;;;11.45;6.80;;;;;;;7.24;100.00;100308.13;5028485;28;20037;-69
2022/12/20 12:15:57;;;;;;;13.55;6.95;;;;;;;7.28;100.00;100326.22;5032783;28;20082;-69
2022/12/20 12:18:27;;;;;;;15.15;7.43;;;;;;;7.35;100.00;100323.78;5039491;28;20041;-68
2022/12/20 12:21:02;;;;;;;11.18;6.95;;;;;;;7.34;100.00;100315.00;5053346;28;20064;-69
2022/12/20 12:23:43;;;;;;;12.75;7.78;;;;;;;7.36;100.00;100320.16;5052597;28;20398;-69
2022/12/20 12:26:15;;;;;;;14.70;7.70;;;;;;;7.34;100.00;100314.19;5052395;28;20036;-68
2022/12/20 12:28:40;;;;;;;15.40;7.47;;;;;;;7.32;100.00;100311.69;5052403;28;20041;-68
2022/12/20 12:31:13;;;;;;;17.38;8.25;;;;;;;7.29;100.00;100295.25;5051327;28;20044;-68
2022/12/20 12:33:48;;;;;;;13.27;7.35;;;;;;;7.32;100.00;100285.19;5051026;28;20040;-68
2022/12/20 12:36:34;;;;;;;12.60;7.35;;;;;;;7.26;100.00;100255.81;5052000;28;20036;-69
2022/12/20 12:39:25;;;;;;;10.85;6.05;;;;;;;7.25;100.00;100248.84;5052063;28;20043;-69
2022/12/20 12:42:22;;;;;;;10.35;6.43;;;;;;;7.32;100.00;100253.38;5051883;28;20037;-67
2022/12/20 12:45:06;;;;;;;10.43;6.80;;;;;;;7.33;100.00;100241.81;5052464;28;20043;-69
2022/12/20 12:47:50;;;;;;;12.75;6.95;;;;;;;7.36;100.00;100238.00;5045547;28;20052;-70
2022/12/20 12:50:31;;;;;;;12.15;6.72;;;;;;;7.40;100.00;100238.53;5031175;28;20391;-71
2022/12/20 12:53:24;;;;;;;14.98;7.85;;;;;;;7.38;100.00;100237.88;5031910;28;20107;-70
2022/12/20 12:55:51;;;;;;;13.18;6.70;;;;;;;7.41;100.00;100238.38;5032295;28;20104;-69
2022/12/20 12:58:22;;;;;;;13.20;7.45;;;;;;;7.43;100.00;100238.22;5031713;28;20041;-68
2022/12/20 13:00:51;;;;;;;13.68;6.75;;;;;;;7.43;100.00;100243.53;5031418;28;20037;-68
2022/12/20 13:03:39;;;;;;;12.77;7.13;;;;;;;7.39;100.00;100243.00;5031639;28;20049;-69
2022/12/20 13:06:22;;;;;;;12.07;7.60;;;;;;;7.43;100.00;100222.31;5031631;28;20033;-69
2022/12/20 13:09:19;;;;;;;14.30;7.47;;;;;;;7.43;100.00;100231.09;5031743;28;20033;-69
2022/12/20 13:11:44;;;;;;;10.73;5.97;;;;;;;7.49;100.00;100217.22;5021618;28;20045;-68
2022/12/20 13:14:24;;;;;;;13.38;7.00;;;;;;;7.56;100.00;100223.63;5031689;28;20120;-68
2022/12/20 13:16:58;;;;;;;11.45;6.97;;;;;;;7.60;100.00;100224.94;5031636;28;20633;-68
2022/12/20 13:19:24;;;;;;;11.57;6.43;;;;;;;7.60;100.00;100218.81;5031540;28;20041;-69
2022/12/20 13:22:05;;;;;;;13.48;7.22;;;;;;;7.55;100.00;100207.84;5031193;28;20022;-68
2022/12/20 13:24:49;;;;;;;10.32;6.90;;;;;;;7.50;100.00;100202.19;5031562;28;20502;-69
2022/12/20 13:27:14;;;;;;;14.73;6.80;;;;;;;7.48;100.00;100209.44;5031661;28;20124;-68
2022/12/20 13:29:53;;;;;;;17.77;7.72;;;;;;;7.42;100.00;100202.94;5030215;28;20541;-68
2022/12/20 13:32:47;;;;;;;16.83;7.78;;;;;;;7.42;100.00;100205.59;5031023;28;20033;-71
2022/12/20 13:35:25;;;;;;;15.00;7.60;;;;;;;7.43;100.00;100190.50;5023291;28;20053;-69
2022/12/20 13:37:58;;;;;;;13.00;6.30;;;;;;;7.35;100.00;100197.41;5031443;28;20548;-69
2022/12/20 13:40:43;;;;;;;10.43;6.93;;;;;;;7.34;100.00;100187.81;5031320;28;20045;-68
2022/12/20 13:43:26;;;;;;;11.98;7.13;;;;;;;7.34;100.00;100198.41;5033262;28;20045;-69
2022/12/20 13:45:57;;;;;;;13.57;6.47;;;;;;;7.35;100.00;100208.03;5035753;28;20033;-69
2022/12/20 13:48:37;;;;;;;11.07;6.22;;;;;;;7.31;100.00;100192.59;5051368;28;20049;-69
2022/12/20 13:51:06;;;;;;;11.18;7.07;;;;;;;7.27;100.00;100202.66;5035600;28;20064;-69
2022/12/20 13:53:32;;;;;;;15.05;7.53;;;;;;;7.27;100.00;100194.72;5035336;28;20125;-68
2022/12/20 13:55:57;;;;;;;12.27;7.00;;;;;;;7.29;100.00;100187.44;5034238;28;20116;-68
2022/12/20 13:58:44;;;;;;;10.57;6.85;;;;;;;7.29;100.00;100190.09;5035248;28;20045;-69
2022/12/20 14:01:12;;;;;;;12.13;6.75;;;;;;;7.30;100.00;100189.13;5034729;28;20033;-69
2022/12/20 14:03:44;;;;;;;10.77;7.15;;;;;;;7.25;100.00;100178.16;5034922;28;20448;-69
2022/12/20 14:06:12;;;;;;;14.68;6.40;;;;;;;7.26;100.00;100179.81;5033728;28;20072;-69
2022/12/20 14:08:41;;;;;;;12.73;6.38;;;;;;;7.30;100.00;100189.13;5034904;28;20406;-68
2022/12/20 14:11:21;;;;;;;11.02;6.20;;;;;;;7.38;100.00;100198.94;5034384;28;20049;-68
2022/12/20 14:13:56;;;;;;;11.85;7.05;;;;;;;7.39;100.00;100189.19;5034918;28;20116;-68
2022/12/20 14:16:24;;;;;;;10.77;6.32;;;;;;;7.40;100.00;100189.03;5034923;28;20488;-69
2022/12/20 14:18:59;;;;;;;10.68;6.25;;;;;;;7.35;100.00;100189.47;5034880;28;20075;-68
2022/12/20 14:21:25;;;;;;;11.65;6.75;;;;;;;7.33;100.00;100188.81;5034592;28;20037;-68
2022/12/20 14:23:53;;;;;;;13.00;6.60;;;;;;;7.32;100.00;100181.84;5034731;28;20091;-68
2022/12/20 14:26:27;;;;;;;12.85;7.00;;;;;;;7.34;100.00;100177.22;5034579;28;20495;-67
2022/12/20 14:28:57;;;;;;;16.08;7.05;;;;;;;7.31;100.00;100174.88;5034570;28;20041;-69
2022/12/20 14:31:32;;;;;;;13.25;7.65;;;;;;;7.34;100.00;100174.56;5034051;28;20132;-70
2022/12/20 14:34:09;;;;;;;13.90;7.43;;;;;;;7.34;100.00;100181.69;5034757;28;20034;-69
2022/12/20 14:36:39;;;;;;;13.52;6.72;;;;;;;7.35;100.00;100181.53;5034625;28;20061;-70
2022/12/20 14:39:25;;;;;;;9.88;5.88;;;;;;;7.33;100.00;100172.91;5033204;28;20457;-70
2022/12/20 14:42:11;;;;;;;12.35;6.47;;;;;;;7.31;100.00;100164.28;5034043;28;20029;-69
2022/12/20 14:44:38;;;;;;;10.50;6.45;;;;;;;7.27;100.00;100164.75;5032930;28;20479;-69
2022/12/20 14:47:15;;;;;;;18.55;6.93;;;;;;;7.22;100.00;100159.88;5034333;28;20033;-69
2022/12/20 14:49:48;;;;;;;12.83;6.90;;;;;;;7.20;100.00;100164.53;5034239;28;20087;-69
2022/12/20 14:52:18;;;;;;;13.65;7.65;;;;;;;7.17;100.00;100159.53;5033697;28;20296;-69
2022/12/20 14:54:57;;;;;;;18.73;8.10;;;;;;;7.16;100.00;100168.44;5033745;28;20128;-68
2022/12/20 14:57:35;;;;;;;11.88;8.13;;;;;;;7.12;100.00;100161.81;5034167;28;20040;-68
2022/12/20 15:00:00;;;;;;;11.70;7.45;;;;;;;7.07;100.00;100156.13;5033876;28;20541;-68
2022/12/20 15:02:35;;;;;;;12.43;6.68;;;;;;;7.07;100.00;100162.25;5033748;28;20037;-69
2022/12/20 15:05:25;;;;;;;9.80;6.20;;;;;;;7.07;100.00;100169.38;5034117;28;20091;-70
2022/12/20 15:07:50;;;;;;;11.93;5.50;;;;;;;7.03;100.00;100178.59;5032601;28;20038;-70
2022/12/20 15:10:15;;;;;;;22.83;9.25;;;;;;;7.03;100.00;100184.72;5033484;28;20121;-69
2022/12/20 15:12:41;;;;;;;17.60;8.73;;;;;;;7.01;100.00;100189.34;5033608;28;20049;-69
2022/12/20 15:15:14;;;;;;;12.07;7.13;;;;;;;7.02;100.00;100182.25;5033720;28;20102;-69
2022/12/20 15:17:39;;;;;;;13.43;8.52;;;;;;;7.02;100.00;100193.66;5032328;28;20025;-69
2022/12/20 15:20:10;;;;;;;17.90;7.70;;;;;;;6.97;100.00;100184.50;5033464;28;20505;-69
2022/12/20 15:22:36;;;;;;;13.45;7.88;;;;;;;6.94;100.00;100185.66;5033379;28;20029;-68
2022/12/20 15:25:01;;;;;;;18.67;8.60;;;;;;;6.92;100.00;100187.63;5032228;28;20590;-70
2022/12/20 15:27:26;;;;;;;11.20;6.75;;;;;;;6.92;100.00;100181.50;5032228;28;20060;-70
2022/12/20 15:29:52;;;;;;;18.80;8.73;;;;;;;6.92;100.00;100192.09;5033488;28;20045;-70
2022/12/20 15:32:28;;;;;;;14.07;7.40;;;;;;;6.86;100.00;100177.63;5032786;28;20483;-69
2022/12/20 15:34:54;;;;;;;13.70;8.20;;;;;;;6.89;100.00;100176.50;5032307;28;20437;-69
2022/12/20 15:37:20;;;;;;;14.27;8.20;;;;;;;6.87;100.00;100179.28;5033231;28;20120;-69
2022/12/20 15:39:46;;;;;;;16.08;8.50;;;;;;;6.84;100.00;100176.94;5032030;28;20076;-69
2022/12/20 15:42:17;;;;;;;18.77;7.45;;;;;;;6.84;100.00;100176.94;5033113;28;20034;-69
2022/12/20 15:44:43;;;;;;;13.35;7.53;;;;;;;6.78;100.00;100173.09;5032777;28;20037;-68
2022/12/20 15:47:12;;;;;;;13.02;7.10;;;;;;;6.76;100.00;100169.75;5032969;28;20026;-69
2022/12/20 15:49:38;;;;;;;11.98;6.30;;;;;;;6.71;100.00;100164.06;5032888;28;20064;-69
2022/12/20 15:52:04;;;;;;;15.65;7.03;;;;;;;6.65;100.00;100164.69;5032461;28;20043;-69
2022/12/20 15:54:35;;;;;;;16.52;8.15;;;;;;;6.65;100.00;100167.34;5032855;28;20461;-69
2022/12/20 15:57:06;;;;;;;14.48;8.32;;;;;;;6.60;100.00;100172.25;5032957;28;20684;-68
2022/12/20 15:59:32;;;;;;;11.80;7.28;;;;;;;6.55;100.00;100161.25;5032959;28;20045;-69
2022/12/20 16:01:58;;;;;;;14.45;7.75;;;;;;;6.55;100.00;100160.44;5032372;28;20041;-69
2022/12/20 16:04:23;;;;;;;12.93;6.93;;;;;;;6.58;100.00;100162.75;5032635;28;20033;-70
2022/12/20 16:06:52;;;;;;;14.27;7.18;;;;;;;6.60;100.00;100161.66;5031836;28;20498;-69
2022/12/20 16:09:18;;;;;;;12.98;7.60;;;;;;;6.57;100.00;100161.09;5032506;28;20113;-70
2022/12/20 16:11:44;;;;;;;14.32;7.60;;;;;;;6.54;100.00;100154.31;5032038;28;20041;-69
2022/12/20 16:14:20;;;;;;;9.48;6.13;;;;;;;6.47;100.00;100154.06;5032465;28;20041;-69
2022/12/20 16:16:47;;;;;;;10.93;6.53;;;;;;;6.42;100.00;100153.69;5032320;28;20061;-69
2022/12/20 16:19:12;;;;;;;9.85;6.07;;;;;;;6.40;100.00;100160.13;5032483;28;20045;-69
2022/12/20 16:21:50;;;;;;;13.85;6.68;;;;;;;6.35;100.00;100146.50;5031001;28;20033;-68
2022/12/20 16:24:19;;;;;;;7.18;5.35;;;;;;;6.32;100.00;100154.72;5032297;28;20065;-69
2022/12/20 16:26:45;;;;;;;10.30;5.47;;;;;;;6.29;100.00;100168.25;5032316;28;20083;-69
2022/12/20 16:29:11;;;;;;;9.25;5.32;;;;;;;6.24;100.00;100163.38;5032378;28;20487;-69
2022/12/20 16:31:45;;;;;;;18.27;6.35;;;;;;;6.22;100.00;100162.72;5031612;28;20045;-69
2022/12/20 16:34:14;;;;;;;13.20;6.40;;;;;;;6.17;100.00;100162.31;5032275;28;20394;-69
2022/12/20 16:36:43;;;;;;;9.98;5.70;;;;;;;6.14;100.00;100160.81;5030835;28;20049;-70
2022/12/20 16:39:09;;;;;;;15.60;6.63;;;;;;;6.10;100.00;100151.50;5031981;28;20048;-70
2022/12/20 16:41:36;;;;;;;17.33;8.00;;;;;;;6.07;100.00;100143.03;5031630;28;20121;-67
2022/12/20 16:44:02;;;;;;;13.95;7.50;;;;;;;6.01;100.00;100144.44;5031985;28;20033;-67
2022/12/20 16:46:29;;;;;;;12.95;7.28;;;;;;;5.99;100.00;100131.34;5031961;28;20410;-67
2022/12/20 16:48:56;;;;;;;16.77;7.70;;;;;;;5.95;100.00;100131.81;5030687;28;20083;-67
2022/12/20 16:51:24;;;;;;;14.68;6.68;;;;;;;5.93;100.00;100136.38;5031645;28;20060;-67
2022/12/20 16:53:51;;;;;;;;;;;;;;;5.89;100.00;100129.72;5032295;28;20068;-68
2022/12/20 16:56:16;;;;;;;15.48;6.03;;;;;;;5.90;100.00;100128.72;5031797;28;20428;-67
2022/12/20 16:58:42;;;;;;;19.23;8.00;;;;;;;5.94;100.00;100132.78;5030451;28;20037;-67
2022/12/20 17:01:19;;;;;;;10.77;6.05;;;;;;;5.91;100.00;100127.78;5031401;28;20033;-67
2022/12/20 17:03:45;;;;;;;15.73;7.13;;;;;;;5.90;100.00;100120.78;5031661;28;20041;-67
2022/12/20 17:06:12;;;;;;;10.45;5.75;;;;;;;5.87;100.00;100113.16;5031709;28;20438;-67